sensor_id;sensor_type;location;lat;lon;timestamp;P1;durP1;ratioP1;P2;durP2;ratioP2
50483;SDS011;36409;52.168;20.878;2022-12-07T00:01:51;87.17;;;43.63;;
50483;SDS011;36409;52.168;20.878;2022-12-07T00:04:20;83.67;;;43.43;;
50483;SDS011;36409;52.168;20.878;2022-12-07T00:06:51;89.13;;;42.43;;
50483;SDS011;36409;52.168;20.878;2022-12-07T00:09:20;76.87;;;42.23;;
50483;SDS011;36409;52.168;20.878;2022-12-07T00:11:50;86.70;;;42.43;;
50483;SDS011;36409;52.168;20.878;2022-12-07T00:14:19;81.43;;;43.70;;
50483;SDS011;36409;52.168;20.878;2022-12-07T00:16:49;83.17;;;40.70;;
50483;SDS011;36409;52.168;20.878;2022-12-07T00:19:19;87.93;;;43.83;;
50483;SDS011;36409;52.168;20.878;2022-12-07T00:21:48;83.03;;;42.27;;
50483;SDS011;36409;52.168;20.878;2022-12-07T00:24:17;83.70;;;41.87;;
50483;SDS011;36409;52.168;20.878;2022-12-07T00:26:46;78.20;;;41.03;;
50483;SDS011;36409;52.168;20.878;2022-12-07T00:29:16;77.73;;;40.13;;
50483;SDS011;36409;52.168;20.878;2022-12-07T00:31:47;69.50;;;36.30;;
50483;SDS011;36409;52.168;20.878;2022-12-07T00:34:17;63.60;;;34.40;;
50483;SDS011;36409;52.168;20.878;2022-12-07T00:36:48;76.10;;;36.70;;
50483;SDS011;36409;52.168;20.878;2022-12-07T00:39:17;73.20;;;37.23;;
50483;SDS011;36409;52.168;20.878;2022-12-07T00:41:46;70.27;;;35.67;;
50483;SDS011;36409;52.168;20.878;2022-12-07T00:44:15;72.50;;;36.27;;
50483;SDS011;36409;52.168;20.878;2022-12-07T00:46:44;70.10;;;35.75;;
50483;SDS011;36409;52.168;20.878;2022-12-07T00:49:14;75.50;;;38.57;;
50483;SDS011;36409;52.168;20.878;2022-12-07T00:51:43;71.13;;;35.00;;
50483;SDS011;36409;52.168;20.878;2022-12-07T00:54:12;69.10;;;35.07;;
50483;SDS011;36409;52.168;20.878;2022-12-07T00:56:45;68.80;;;34.90;;
50483;SDS011;36409;52.168;20.878;2022-12-07T00:59:16;65.87;;;31.30;;
50483;SDS011;36409;52.168;20.878;2022-12-07T01:01:47;53.90;;;28.73;;
50483;SDS011;36409;52.168;20.878;2022-12-07T01:04:16;53.63;;;27.43;;
50483;SDS011;36409;52.168;20.878;2022-12-07T01:06:46;50.70;;;26.60;;
50483;SDS011;36409;52.168;20.878;2022-12-07T01:09:16;50.63;;;26.03;;
50483;SDS011;36409;52.168;20.878;2022-12-07T01:11:44;54.93;;;27.40;;
50483;SDS011;36409;52.168;20.878;2022-12-07T01:14:13;49.77;;;26.73;;
50483;SDS011;36409;52.168;20.878;2022-12-07T01:16:42;47.93;;;25.37;;
50483;SDS011;36409;52.168;20.878;2022-12-07T01:19:11;38.10;;;18.90;;
50483;SDS011;36409;52.168;20.878;2022-12-07T01:21:40;40.23;;;20.87;;
50483;SDS011;36409;52.168;20.878;2022-12-07T01:24:10;38.20;;;19.57;;
50483;SDS011;36409;52.168;20.878;2022-12-07T01:26:39;33.80;;;17.87;;
50483;SDS011;36409;52.168;20.878;2022-12-07T01:29:09;26.67;;;16.20;;
50483;SDS011;36409;52.168;20.878;2022-12-07T01:31:38;30.77;;;16.53;;
50483;SDS011;36409;52.168;20.878;2022-12-07T01:34:07;33.60;;;18.77;;
50483;SDS011;36409;52.168;20.878;2022-12-07T01:36:37;35.67;;;20.17;;
50483;SDS011;36409;52.168;20.878;2022-12-07T01:39:06;38.63;;;21.67;;
50483;SDS011;36409;52.168;20.878;2022-12-07T01:41:38;35.67;;;19.40;;
50483;SDS011;36409;52.168;20.878;2022-12-07T01:44:12;28.57;;;16.63;;
50483;SDS011;36409;52.168;20.878;2022-12-07T01:46:44;29.42;;;16.77;;
50483;SDS011;36409;52.168;20.878;2022-12-07T01:49:16;29.33;;;16.13;;
50483;SDS011;36409;52.168;20.878;2022-12-07T01:51:49;28.27;;;15.83;;
50483;SDS011;36409;52.168;20.878;2022-12-07T01:54:19;24.27;;;15.43;;
50483;SDS011;36409;52.168;20.878;2022-12-07T01:56:50;28.13;;;15.73;;
50483;SDS011;36409;52.168;20.878;2022-12-07T01:59:25;33.13;;;16.20;;
50483;SDS011;36409;52.168;20.878;2022-12-07T02:01:56;29.70;;;16.60;;
50483;SDS011;36409;52.168;20.878;2022-12-07T02:04:30;24.60;;;14.27;;
50483;SDS011;36409;52.168;20.878;2022-12-07T02:06:59;26.63;;;16.20;;
50483;SDS011;36409;52.168;20.878;2022-12-07T02:09:28;29.33;;;15.90;;
50483;SDS011;36409;52.168;20.878;2022-12-07T02:11:56;27.47;;;14.80;;
50483;SDS011;36409;52.168;20.878;2022-12-07T02:14:26;30.07;;;15.67;;
50483;SDS011;36409;52.168;20.878;2022-12-07T02:16:59;36.57;;;18.57;;
50483;SDS011;36409;52.168;20.878;2022-12-07T02:25:55;44.40;;;24.50;;
50483;SDS011;36409;52.168;20.878;2022-12-07T02:31:20;35.87;;;20.37;;
50483;SDS011;36409;52.168;20.878;2022-12-07T02:33:54;35.13;;;22.40;;
50483;SDS011;36409;52.168;20.878;2022-12-07T02:36:34;32.40;;;19.33;;
50483;SDS011;36409;52.168;20.878;2022-12-07T02:39:08;26.67;;;16.63;;
50483;SDS011;36409;52.168;20.878;2022-12-07T02:41:43;29.53;;;16.07;;
50483;SDS011;36409;52.168;20.878;2022-12-07T02:44:23;26.83;;;15.57;;
50483;SDS011;36409;52.168;20.878;2022-12-07T02:46:55;26.53;;;14.97;;
50483;SDS011;36409;52.168;20.878;2022-12-07T02:49:31;24.80;;;14.37;;
50483;SDS011;36409;52.168;20.878;2022-12-07T02:52:03;20.73;;;12.63;;
50483;SDS011;36409;52.168;20.878;2022-12-07T02:54:32;21.80;;;11.93;;
50483;SDS011;36409;52.168;20.878;2022-12-07T02:57:02;19.03;;;11.23;;
50483;SDS011;36409;52.168;20.878;2022-12-07T02:59:46;16.33;;;9.57;;
50483;SDS011;36409;52.168;20.878;2022-12-07T03:02:27;14.97;;;9.80;;
50483;SDS011;36409;52.168;20.878;2022-12-07T03:05:07;13.17;;;8.77;;
50483;SDS011;36409;52.168;20.878;2022-12-07T03:07:48;15.77;;;8.57;;
50483;SDS011;36409;52.168;20.878;2022-12-07T03:10:27;14.77;;;9.40;;
50483;SDS011;36409;52.168;20.878;2022-12-07T03:13:04;16.27;;;9.30;;
50483;SDS011;36409;52.168;20.878;2022-12-07T03:15:41;12.40;;;7.80;;
50483;SDS011;36409;52.168;20.878;2022-12-07T03:18:16;14.73;;;8.30;;
50483;SDS011;36409;52.168;20.878;2022-12-07T03:20:49;13.03;;;7.87;;
50483;SDS011;36409;52.168;20.878;2022-12-07T03:23:22;12.70;;;7.77;;
50483;SDS011;36409;52.168;20.878;2022-12-07T03:25:53;13.60;;;8.10;;
50483;SDS011;36409;52.168;20.878;2022-12-07T03:28:29;12.93;;;7.40;;
50483;SDS011;36409;52.168;20.878;2022-12-07T03:31:03;11.60;;;7.80;;
50483;SDS011;36409;52.168;20.878;2022-12-07T03:33:39;12.73;;;7.50;;
50483;SDS011;36409;52.168;20.878;2022-12-07T03:36:17;11.27;;;7.47;;
50483;SDS011;36409;52.168;20.878;2022-12-07T03:38:52;12.13;;;7.20;;
50483;SDS011;36409;52.168;20.878;2022-12-07T03:41:35;12.28;;;7.22;;
50483;SDS011;36409;52.168;20.878;2022-12-07T03:44:12;13.40;;;7.20;;
50483;SDS011;36409;52.168;20.878;2022-12-07T03:46:43;11.57;;;7.23;;
50483;SDS011;36409;52.168;20.878;2022-12-07T03:49:22;11.33;;;7.03;;
50483;SDS011;36409;52.168;20.878;2022-12-07T03:51:56;12.13;;;7.33;;
50483;SDS011;36409;52.168;20.878;2022-12-07T03:54:32;13.10;;;8.27;;
50483;SDS011;36409;52.168;20.878;2022-12-07T03:57:08;12.07;;;7.70;;
50483;SDS011;36409;52.168;20.878;2022-12-07T04:02:11;11.47;;;6.93;;
50483;SDS011;36409;52.168;20.878;2022-12-07T04:04:44;12.73;;;6.85;;
50483;SDS011;36409;52.168;20.878;2022-12-07T04:07:13;14.07;;;7.83;;
50483;SDS011;36409;52.168;20.878;2022-12-07T04:09:42;14.47;;;8.03;;
50483;SDS011;36409;52.168;20.878;2022-12-07T04:12:14;11.73;;;7.10;;
50483;SDS011;36409;52.168;20.878;2022-12-07T04:14:43;12.67;;;7.50;;
50483;SDS011;36409;52.168;20.878;2022-12-07T04:17:12;13.13;;;8.10;;
50483;SDS011;36409;52.168;20.878;2022-12-07T04:19:41;11.80;;;7.57;;
50483;SDS011;36409;52.168;20.878;2022-12-07T04:22:10;11.37;;;7.10;;
50483;SDS011;36409;52.168;20.878;2022-12-07T04:24:41;12.33;;;7.70;;
50483;SDS011;36409;52.168;20.878;2022-12-07T04:27:09;13.97;;;8.83;;
50483;SDS011;36409;52.168;20.878;2022-12-07T04:29:39;12.57;;;7.87;;
50483;SDS011;36409;52.168;20.878;2022-12-07T04:32:08;12.30;;;7.83;;
50483;SDS011;36409;52.168;20.878;2022-12-07T04:34:37;11.97;;;7.90;;
50483;SDS011;36409;52.168;20.878;2022-12-07T04:37:06;14.90;;;8.50;;
50483;SDS011;36409;52.168;20.878;2022-12-07T04:39:35;12.13;;;7.87;;
50483;SDS011;36409;52.168;20.878;2022-12-07T04:42:04;14.20;;;9.03;;
50483;SDS011;36409;52.168;20.878;2022-12-07T04:44:33;14.40;;;9.47;;
50483;SDS011;36409;52.168;20.878;2022-12-07T04:47:02;14.17;;;8.73;;
50483;SDS011;36409;52.168;20.878;2022-12-07T04:49:34;15.87;;;8.80;;
50483;SDS011;36409;52.168;20.878;2022-12-07T04:52:04;17.10;;;9.00;;
50483;SDS011;36409;52.168;20.878;2022-12-07T04:54:35;14.63;;;8.97;;
50483;SDS011;36409;52.168;20.878;2022-12-07T04:57:04;13.50;;;8.77;;
50483;SDS011;36409;52.168;20.878;2022-12-07T04:59:35;12.00;;;8.17;;
50483;SDS011;36409;52.168;20.878;2022-12-07T05:02:12;15.67;;;9.07;;
50483;SDS011;36409;52.168;20.878;2022-12-07T05:04:43;12.97;;;8.47;;
50483;SDS011;36409;52.168;20.878;2022-12-07T05:07:13;11.97;;;8.10;;
50483;SDS011;36409;52.168;20.878;2022-12-07T05:09:42;13.10;;;8.63;;
50483;SDS011;36409;52.168;20.878;2022-12-07T05:12:12;14.63;;;8.50;;
50483;SDS011;36409;52.168;20.878;2022-12-07T05:14:42;14.23;;;8.17;;
50483;SDS011;36409;52.168;20.878;2022-12-07T05:17:11;14.17;;;8.13;;
50483;SDS011;36409;52.168;20.878;2022-12-07T05:19:40;13.83;;;7.90;;
50483;SDS011;36409;52.168;20.878;2022-12-07T05:22:09;12.47;;;7.93;;
50483;SDS011;36409;52.168;20.878;2022-12-07T05:24:38;14.80;;;8.17;;
50483;SDS011;36409;52.168;20.878;2022-12-07T05:27:07;12.27;;;8.10;;
50483;SDS011;36409;52.168;20.878;2022-12-07T05:29:36;13.47;;;8.23;;
50483;SDS011;36409;52.168;20.878;2022-12-07T05:32:05;15.43;;;8.43;;
50483;SDS011;36409;52.168;20.878;2022-12-07T05:34:34;14.83;;;8.33;;
50483;SDS011;36409;52.168;20.878;2022-12-07T05:37:03;16.00;;;9.17;;
50483;SDS011;36409;52.168;20.878;2022-12-07T05:39:32;16.40;;;9.63;;
50483;SDS011;36409;52.168;20.878;2022-12-07T05:42:01;16.03;;;9.33;;
50483;SDS011;36409;52.168;20.878;2022-12-07T05:44:45;16.82;;;10.00;;
50483;SDS011;36409;52.168;20.878;2022-12-07T05:47:16;18.53;;;11.27;;
50483;SDS011;36409;52.168;20.878;2022-12-07T05:49:47;16.83;;;10.47;;
50483;SDS011;36409;52.168;20.878;2022-12-07T05:52:16;15.30;;;10.25;;
50483;SDS011;36409;52.168;20.878;2022-12-07T05:54:45;15.90;;;9.90;;
50483;SDS011;36409;52.168;20.878;2022-12-07T05:57:14;19.60;;;11.37;;
50483;SDS011;36409;52.168;20.878;2022-12-07T05:59:43;16.83;;;11.00;;
50483;SDS011;36409;52.168;20.878;2022-12-07T06:02:14;16.37;;;11.53;;
50483;SDS011;36409;52.168;20.878;2022-12-07T06:04:46;18.57;;;12.10;;
50483;SDS011;36409;52.168;20.878;2022-12-07T06:07:15;19.27;;;11.70;;
50483;SDS011;36409;52.168;20.878;2022-12-07T06:09:47;19.00;;;11.53;;
50483;SDS011;36409;52.168;20.878;2022-12-07T06:12:16;20.13;;;12.43;;
50483;SDS011;36409;52.168;20.878;2022-12-07T06:15:06;21.33;;;11.57;;
50483;SDS011;36409;52.168;20.878;2022-12-07T06:17:36;19.93;;;12.10;;
50483;SDS011;36409;52.168;20.878;2022-12-07T06:20:10;18.20;;;11.63;;
50483;SDS011;36409;52.168;20.878;2022-12-07T06:22:43;19.93;;;11.70;;
50483;SDS011;36409;52.168;20.878;2022-12-07T06:25:12;21.00;;;12.20;;
50483;SDS011;36409;52.168;20.878;2022-12-07T06:27:44;21.00;;;12.77;;
50483;SDS011;36409;52.168;20.878;2022-12-07T06:30:13;18.50;;;11.97;;
50483;SDS011;36409;52.168;20.878;2022-12-07T06:32:46;19.17;;;11.23;;
50483;SDS011;36409;52.168;20.878;2022-12-07T06:35:15;22.20;;;12.53;;
50483;SDS011;36409;52.168;20.878;2022-12-07T06:37:44;21.13;;;12.83;;
50483;SDS011;36409;52.168;20.878;2022-12-07T06:40:13;21.93;;;13.63;;
50483;SDS011;36409;52.168;20.878;2022-12-07T06:42:42;20.00;;;12.87;;
50483;SDS011;36409;52.168;20.878;2022-12-07T06:45:11;21.20;;;12.70;;
50483;SDS011;36409;52.168;20.878;2022-12-07T06:47:40;22.67;;;13.30;;
50483;SDS011;36409;52.168;20.878;2022-12-07T06:50:11;18.43;;;11.93;;
50483;SDS011;36409;52.168;20.878;2022-12-07T06:52:40;22.37;;;13.00;;
50483;SDS011;36409;52.168;20.878;2022-12-07T06:55:09;21.80;;;12.90;;
50483;SDS011;36409;52.168;20.878;2022-12-07T06:57:38;21.97;;;12.27;;
50483;SDS011;36409;52.168;20.878;2022-12-07T07:00:07;23.83;;;12.83;;
50483;SDS011;36409;52.168;20.878;2022-12-07T07:02:38;21.63;;;13.07;;
50483;SDS011;36409;52.168;20.878;2022-12-07T07:05:07;24.57;;;13.30;;
50483;SDS011;36409;52.168;20.878;2022-12-07T07:07:36;23.07;;;12.70;;
50483;SDS011;36409;52.168;20.878;2022-12-07T07:10:25;20.60;;;12.33;;
50483;SDS011;36409;52.168;20.878;2022-12-07T07:12:54;21.87;;;12.63;;
50483;SDS011;36409;52.168;20.878;2022-12-07T07:15:24;19.37;;;12.27;;
50483;SDS011;36409;52.168;20.878;2022-12-07T07:17:53;23.47;;;12.30;;
50483;SDS011;36409;52.168;20.878;2022-12-07T07:20:22;22.73;;;12.63;;
50483;SDS011;36409;52.168;20.878;2022-12-07T07:22:51;21.23;;;12.80;;
50483;SDS011;36409;52.168;20.878;2022-12-07T07:25:22;21.33;;;13.17;;
50483;SDS011;36409;52.168;20.878;2022-12-07T07:27:51;21.03;;;12.60;;
50483;SDS011;36409;52.168;20.878;2022-12-07T07:30:20;19.07;;;10.97;;
50483;SDS011;36409;52.168;20.878;2022-12-07T07:32:49;22.13;;;13.20;;
50483;SDS011;36409;52.168;20.878;2022-12-07T07:35:18;16.97;;;10.73;;
50483;SDS011;36409;52.168;20.878;2022-12-07T07:37:49;18.03;;;11.07;;
50483;SDS011;36409;52.168;20.878;2022-12-07T07:40:20;18.93;;;11.87;;
50483;SDS011;36409;52.168;20.878;2022-12-07T07:42:49;18.17;;;11.53;;
50483;SDS011;36409;52.168;20.878;2022-12-07T07:45:20;17.37;;;11.30;;
50483;SDS011;36409;52.168;20.878;2022-12-07T07:47:50;16.47;;;10.47;;
50483;SDS011;36409;52.168;20.878;2022-12-07T07:50:24;18.53;;;10.63;;
50483;SDS011;36409;52.168;20.878;2022-12-07T07:52:59;16.47;;;9.73;;
50483;SDS011;36409;52.168;20.878;2022-12-07T07:55:31;19.23;;;11.37;;
50483;SDS011;36409;52.168;20.878;2022-12-07T07:58:01;28.13;;;19.17;;
50483;SDS011;36409;52.168;20.878;2022-12-07T08:00:37;93.40;;;53.53;;
50483;SDS011;36409;52.168;20.878;2022-12-07T08:03:07;40.15;;;27.85;;
50483;SDS011;36409;52.168;20.878;2022-12-07T08:05:42;23.00;;;15.50;;
50483;SDS011;36409;52.168;20.878;2022-12-07T08:08:11;23.27;;;14.93;;
50483;SDS011;36409;52.168;20.878;2022-12-07T08:56:46;29.10;;;16.07;;
50483;SDS011;36409;52.168;20.878;2022-12-07T08:59:33;36.63;;;20.45;;
50483;SDS011;36409;52.168;20.878;2022-12-07T09:02:05;46.67;;;27.17;;
50483;SDS011;36409;52.168;20.878;2022-12-07T09:07:30;39.40;;;21.50;;
50483;SDS011;36409;52.168;20.878;2022-12-07T09:10:02;39.53;;;21.13;;
50483;SDS011;36409;52.168;20.878;2022-12-07T09:12:35;30.97;;;18.83;;
50483;SDS011;36409;52.168;20.878;2022-12-07T09:15:08;31.80;;;18.07;;
50483;SDS011;36409;52.168;20.878;2022-12-07T09:17:37;30.93;;;17.47;;
50483;SDS011;36409;52.168;20.878;2022-12-07T09:20:07;29.87;;;17.67;;
50483;SDS011;36409;52.168;20.878;2022-12-07T09:22:46;32.30;;;17.40;;
50483;SDS011;36409;52.168;20.878;2022-12-07T09:25:16;35.17;;;18.77;;
50483;SDS011;36409;52.168;20.878;2022-12-07T09:27:47;31.87;;;17.50;;
50483;SDS011;36409;52.168;20.878;2022-12-07T09:30:22;30.03;;;17.63;;
50483;SDS011;36409;52.168;20.878;2022-12-07T09:32:53;30.80;;;17.95;;
50483;SDS011;36409;52.168;20.878;2022-12-07T09:35:34;32.93;;;17.17;;
50483;SDS011;36409;52.168;20.878;2022-12-07T09:38:11;32.47;;;17.77;;
50483;SDS011;36409;52.168;20.878;2022-12-07T09:40:42;34.53;;;17.27;;
50483;SDS011;36409;52.168;20.878;2022-12-07T09:43:18;33.90;;;17.03;;
50483;SDS011;36409;52.168;20.878;2022-12-07T09:45:50;27.43;;;15.20;;
50483;SDS011;36409;52.168;20.878;2022-12-07T09:48:30;30.03;;;16.63;;
50483;SDS011;36409;52.168;20.878;2022-12-07T09:51:16;31.63;;;16.37;;
50483;SDS011;36409;52.168;20.878;2022-12-07T09:53:56;26.80;;;16.97;;
50483;SDS011;36409;52.168;20.878;2022-12-07T09:56:30;31.10;;;15.30;;
50483;SDS011;36409;52.168;20.878;2022-12-07T09:59:12;31.70;;;16.87;;
50483;SDS011;36409;52.168;20.878;2022-12-07T10:01:47;27.83;;;16.07;;
50483;SDS011;36409;52.168;20.878;2022-12-07T10:04:19;28.30;;;15.67;;
50483;SDS011;36409;52.168;20.878;2022-12-07T10:06:50;28.90;;;16.60;;
50483;SDS011;36409;52.168;20.878;2022-12-07T10:09:20;27.67;;;15.97;;
50483;SDS011;36409;52.168;20.878;2022-12-07T10:12:05;28.17;;;14.83;;
50483;SDS011;36409;52.168;20.878;2022-12-07T10:14:37;23.33;;;15.30;;
50483;SDS011;36409;52.168;20.878;2022-12-07T10:17:41;30.87;;;15.90;;
50483;SDS011;36409;52.168;20.878;2022-12-07T10:20:21;28.93;;;15.57;;
50483;SDS011;36409;52.168;20.878;2022-12-07T10:22:57;29.67;;;16.27;;
50483;SDS011;36409;52.168;20.878;2022-12-07T10:25:32;35.27;;;20.27;;
50483;SDS011;36409;52.168;20.878;2022-12-07T10:28:13;33.73;;;20.50;;
50483;SDS011;36409;52.168;20.878;2022-12-07T10:30:51;41.43;;;25.33;;
50483;SDS011;36409;52.168;20.878;2022-12-07T10:33:30;40.07;;;23.03;;
50483;SDS011;36409;52.168;20.878;2022-12-07T10:36:19;30.57;;;19.00;;
50483;SDS011;36409;52.168;20.878;2022-12-07T10:38:51;23.43;;;14.03;;
50483;SDS011;36409;52.168;20.878;2022-12-07T10:41:36;24.25;;;13.95;;
50483;SDS011;36409;52.168;20.878;2022-12-07T10:44:25;23.80;;;14.47;;
50483;SDS011;36409;52.168;20.878;2022-12-07T10:49:59;22.03;;;12.83;;
50483;SDS011;36409;52.168;20.878;2022-12-07T10:52:47;19.00;;;12.87;;
50483;SDS011;36409;52.168;20.878;2022-12-07T10:55:33;19.73;;;13.73;;
50483;SDS011;36409;52.168;20.878;2022-12-07T11:01:08;21.80;;;15.30;;
50483;SDS011;36409;52.168;20.878;2022-12-07T11:03:53;21.70;;;14.87;;
50483;SDS011;36409;52.168;20.878;2022-12-07T11:06:35;22.87;;;16.20;;
50483;SDS011;36409;52.168;20.878;2022-12-07T11:09:24;25.50;;;16.57;;
50483;SDS011;36409;52.168;20.878;2022-12-07T11:12:36;19.53;;;14.00;;
50483;SDS011;36409;52.168;20.878;2022-12-07T11:15:22;19.60;;;13.50;;
50483;SDS011;36409;52.168;20.878;2022-12-07T11:18:03;19.70;;;13.63;;
50483;SDS011;36409;52.168;20.878;2022-12-07T11:20:46;19.03;;;13.70;;
50483;SDS011;36409;52.168;20.878;2022-12-07T11:23:24;20.57;;;13.93;;
50483;SDS011;36409;52.168;20.878;2022-12-07T11:26:06;21.40;;;14.63;;
50483;SDS011;36409;52.168;20.878;2022-12-07T11:28:56;20.10;;;13.55;;
50483;SDS011;36409;52.168;20.878;2022-12-07T11:31:41;20.93;;;14.00;;
50483;SDS011;36409;52.168;20.878;2022-12-07T11:34:36;20.60;;;13.33;;
50483;SDS011;36409;52.168;20.878;2022-12-07T11:37:13;22.27;;;15.40;;
50483;SDS011;36409;52.168;20.878;2022-12-07T11:39:50;27.87;;;16.73;;
50483;SDS011;36409;52.168;20.878;2022-12-07T11:42:26;22.00;;;14.13;;
50483;SDS011;36409;52.168;20.878;2022-12-07T11:45:09;21.83;;;14.33;;
50483;SDS011;36409;52.168;20.878;2022-12-07T11:47:45;26.70;;;18.00;;
50483;SDS011;36409;52.168;20.878;2022-12-07T11:50:26;23.83;;;16.07;;
50483;SDS011;36409;52.168;20.878;2022-12-07T11:53:05;20.60;;;14.25;;
50483;SDS011;36409;52.168;20.878;2022-12-07T11:55:45;21.77;;;14.17;;
50483;SDS011;36409;52.168;20.878;2022-12-07T11:58:27;20.90;;;13.20;;
50483;SDS011;36409;52.168;20.878;2022-12-07T12:01:13;19.27;;;12.70;;
50483;SDS011;36409;52.168;20.878;2022-12-07T12:03:50;20.67;;;14.50;;
50483;SDS011;36409;52.168;20.878;2022-12-07T12:06:25;17.77;;;12.97;;
50483;SDS011;36409;52.168;20.878;2022-12-07T12:08:56;24.80;;;15.03;;
50483;SDS011;36409;52.168;20.878;2022-12-07T12:12:04;19.43;;;13.00;;
50483;SDS011;36409;52.168;20.878;2022-12-07T12:15:13;25.60;;;16.67;;
50483;SDS011;36409;52.168;20.878;2022-12-07T12:20:54;27.47;;;17.80;;
50483;SDS011;36409;52.168;20.878;2022-12-07T12:23:35;34.97;;;17.70;;
50483;SDS011;36409;52.168;20.878;2022-12-07T12:26:13;26.97;;;18.67;;
50483;SDS011;36409;52.168;20.878;2022-12-07T12:28:52;25.37;;;17.23;;
50483;SDS011;36409;52.168;20.878;2022-12-07T12:31:35;23.87;;;15.40;;
50483;SDS011;36409;52.168;20.878;2022-12-07T12:34:32;30.80;;;20.43;;
50483;SDS011;36409;52.168;20.878;2022-12-07T12:37:39;24.67;;;16.37;;
50483;SDS011;36409;52.168;20.878;2022-12-07T12:43:42;42.00;;;23.83;;
50483;SDS011;36409;52.168;20.878;2022-12-07T12:49:35;21.83;;;15.77;;
50483;SDS011;36409;52.168;20.878;2022-12-07T12:55:21;25.10;;;16.60;;
50483;SDS011;36409;52.168;20.878;2022-12-07T13:04:24;23.47;;;15.43;;
50483;SDS011;36409;52.168;20.878;2022-12-07T13:07:47;22.67;;;14.57;;
50483;SDS011;36409;52.168;20.878;2022-12-07T13:13:33;35.63;;;21.00;;
50483;SDS011;36409;52.168;20.878;2022-12-07T13:19:37;37.53;;;21.20;;
50483;SDS011;36409;52.168;20.878;2022-12-07T13:25:41;18.13;;;12.90;;
50483;SDS011;36409;52.168;20.878;2022-12-07T13:28:18;21.50;;;13.73;;
50483;SDS011;36409;52.168;20.878;2022-12-07T13:30:53;19.67;;;13.90;;
50483;SDS011;36409;52.168;20.878;2022-12-07T13:33:41;26.70;;;16.70;;
50483;SDS011;36409;52.168;20.878;2022-12-07T13:36:17;19.20;;;12.77;;
50483;SDS011;36409;52.168;20.878;2022-12-07T13:38:50;19.23;;;12.90;;
50483;SDS011;36409;52.168;20.878;2022-12-07T13:41:44;26.33;;;16.77;;
50483;SDS011;36409;52.168;20.878;2022-12-07T13:44:18;33.08;;;21.17;;
50483;SDS011;36409;52.168;20.878;2022-12-07T13:46:49;28.83;;;19.63;;
50483;SDS011;36409;52.168;20.878;2022-12-07T13:49:25;22.40;;;15.17;;
50483;SDS011;36409;52.168;20.878;2022-12-07T13:52:13;19.47;;;12.63;;
50483;SDS011;36409;52.168;20.878;2022-12-07T13:54:44;22.83;;;17.30;;
50483;SDS011;36409;52.168;20.878;2022-12-07T13:57:16;25.63;;;16.53;;
50483;SDS011;36409;52.168;20.878;2022-12-07T13:59:45;29.33;;;20.60;;
50483;SDS011;36409;52.168;20.878;2022-12-07T14:02:18;24.37;;;16.83;;
50483;SDS011;36409;52.168;20.878;2022-12-07T14:04:50;20.17;;;14.57;;
50483;SDS011;36409;52.168;20.878;2022-12-07T14:07:23;17.10;;;12.23;;
50483;SDS011;36409;52.168;20.878;2022-12-07T14:10:00;20.67;;;13.80;;
50483;SDS011;36409;52.168;20.878;2022-12-07T14:12:38;19.47;;;13.33;;
50483;SDS011;36409;52.168;20.878;2022-12-07T14:15:16;18.97;;;13.23;;
50483;SDS011;36409;52.168;20.878;2022-12-07T14:17:52;20.13;;;13.37;;
50483;SDS011;36409;52.168;20.878;2022-12-07T14:20:35;19.67;;;14.05;;
50483;SDS011;36409;52.168;20.878;2022-12-07T14:23:21;21.20;;;13.43;;
50483;SDS011;36409;52.168;20.878;2022-12-07T14:25:52;19.27;;;13.48;;
50483;SDS011;36409;52.168;20.878;2022-12-07T14:28:28;25.03;;;14.47;;
50483;SDS011;36409;52.168;20.878;2022-12-07T14:31:09;19.33;;;13.43;;
50483;SDS011;36409;52.168;20.878;2022-12-07T14:33:50;20.70;;;15.60;;
50483;SDS011;36409;52.168;20.878;2022-12-07T14:36:20;17.27;;;12.87;;
50483;SDS011;36409;52.168;20.878;2022-12-07T14:38:49;30.63;;;19.37;;
50483;SDS011;36409;52.168;20.878;2022-12-07T14:41:31;25.00;;;16.30;;
50483;SDS011;36409;52.168;20.878;2022-12-07T14:44:19;26.93;;;19.30;;
50483;SDS011;36409;52.168;20.878;2022-12-07T14:47:01;24.33;;;18.83;;
50483;SDS011;36409;52.168;20.878;2022-12-07T14:50:00;23.23;;;16.73;;
50483;SDS011;36409;52.168;20.878;2022-12-07T14:52:38;19.10;;;13.85;;
50483;SDS011;36409;52.168;20.878;2022-12-07T14:55:31;20.37;;;15.23;;
50483;SDS011;36409;52.168;20.878;2022-12-07T14:58:06;23.40;;;17.62;;
50483;SDS011;36409;52.168;20.878;2022-12-07T15:03:09;26.63;;;18.80;;
50483;SDS011;36409;52.168;20.878;2022-12-07T15:05:40;31.93;;;22.53;;
50483;SDS011;36409;52.168;20.878;2022-12-07T15:08:10;24.10;;;15.67;;
50483;SDS011;36409;52.168;20.878;2022-12-07T15:10:43;18.77;;;13.23;;
50483;SDS011;36409;52.168;20.878;2022-12-07T15:13:14;19.37;;;14.00;;
50483;SDS011;36409;52.168;20.878;2022-12-07T15:16:11;23.30;;;15.10;;
50483;SDS011;36409;52.168;20.878;2022-12-07T15:18:44;22.30;;;14.63;;
50483;SDS011;36409;52.168;20.878;2022-12-07T15:21:35;22.30;;;15.10;;
50483;SDS011;36409;52.168;20.878;2022-12-07T15:24:09;24.17;;;16.27;;
50483;SDS011;36409;52.168;20.878;2022-12-07T15:26:48;20.77;;;15.13;;
50483;SDS011;36409;52.168;20.878;2022-12-07T15:29:18;24.47;;;15.17;;
50483;SDS011;36409;52.168;20.878;2022-12-07T15:31:50;22.47;;;15.67;;
50483;SDS011;36409;52.168;20.878;2022-12-07T15:34:28;21.17;;;14.93;;
50483;SDS011;36409;52.168;20.878;2022-12-07T15:37:11;23.23;;;13.90;;
50483;SDS011;36409;52.168;20.878;2022-12-07T15:39:40;22.80;;;15.23;;
50483;SDS011;36409;52.168;20.878;2022-12-07T15:42:09;22.60;;;14.83;;
50483;SDS011;36409;52.168;20.878;2022-12-07T15:44:38;25.30;;;14.67;;
50483;SDS011;36409;52.168;20.878;2022-12-07T15:47:29;22.30;;;14.85;;
50483;SDS011;36409;52.168;20.878;2022-12-07T15:50:20;21.63;;;15.00;;
50483;SDS011;36409;52.168;20.878;2022-12-07T15:52:49;21.80;;;14.87;;
50483;SDS011;36409;52.168;20.878;2022-12-07T15:55:21;23.27;;;14.77;;
50483;SDS011;36409;52.168;20.878;2022-12-07T15:57:50;24.40;;;15.53;;
50483;SDS011;36409;52.168;20.878;2022-12-07T16:00:22;26.85;;;16.60;;
50483;SDS011;36409;52.168;20.878;2022-12-07T16:02:51;43.27;;;26.77;;
50483;SDS011;36409;52.168;20.878;2022-12-07T16:05:20;61.97;;;37.03;;
50483;SDS011;36409;52.168;20.878;2022-12-07T16:07:49;77.07;;;47.67;;
50483;SDS011;36409;52.168;20.878;2022-12-07T16:10:18;48.33;;;33.27;;
50483;SDS011;36409;52.168;20.878;2022-12-07T16:12:47;36.00;;;27.57;;
50483;SDS011;36409;52.168;20.878;2022-12-07T16:15:18;28.63;;;22.17;;
50483;SDS011;36409;52.168;20.878;2022-12-07T16:17:51;28.40;;;21.23;;
50483;SDS011;36409;52.168;20.878;2022-12-07T16:20:20;43.00;;;32.13;;
50483;SDS011;36409;52.168;20.878;2022-12-07T16:22:51;27.33;;;18.80;;
50483;SDS011;36409;52.168;20.878;2022-12-07T16:25:20;30.50;;;18.37;;
50483;SDS011;36409;52.168;20.878;2022-12-07T16:27:49;23.00;;;15.53;;
50483;SDS011;36409;52.168;20.878;2022-12-07T16:30:19;26.13;;;17.20;;
50483;SDS011;36409;52.168;20.878;2022-12-07T16:32:48;25.93;;;15.70;;